Pagina principale
METAR-TAF:

METAR-TAF

Aeroporti :

Qurayyat, Arabia Saudita

latitudine: 31-24N, longitudine: 037-16E, altezza: 509 m

Osservazione

Il bollettino è stato emesso 39 minuti fa, alle 18:00 UTC
Vento 4 kt da nord/nord-ovest
Temperature 12°C
Umidità 76%
Pressione 1016 hPa
Visibilità 10 km o più
nessuna nube inferiore a 1500 m e nessun cumulonembo

METAR: OEGT 101800Z 33004KT CAVOK 12/08 Q1016 NOSIG

Ora: 21:39 (18:39 UTC)

Previsione

Il bollettino è stato emesso 7 ore e 39 minuti fa, alle 11:00 UTC
Previsione valida dal 10 alle 12 UTC al 11 alle 18 UTC
Vento 14 kt da ovest
Visibilità 10 km o più
Nubi sparse ad un'altezza di 4000 ft
Temporaneamente
dal 10 alle 12 UTC al 10 alle 18 UTC
Poco nuvoloso ad un'altezza di 3500 ft, Cumulonembo.
Evoluzione graduale
dal 10 alle 18 UTC al 10 alle 20 UTC
Vento 3 kt da direzioni variabili

TAF: OEGT 101100Z 1012/1118 28014KT 9999 SCT040 TEMPO 1012/1018 FEW035CB BECMG 1018/1020 VRB03KT

Osservazioni e previsioni meteorologiche di più di 4000 aeroporti (messaggi METAR e TAF).

Le stazioni disponibili sono rappresentate dai dischi gialli e rossi sulla carta.

Puntare il mouse per vedere il nome della stazione.

Clicca sopra per visualizzare le osservazioni e previsioni meteorologiche.

Per cambiare la mappa : fare clic sui pulsanti verdi con una croce nera per ingrandire, il pulsante verde con un trattino per diminuire, o sulla freccia verde per le mappe adiacenti.


METAR-TAF: